Time;durP1;ratioP1;P1;durP2;ratioP2;P2;SDS_P1;SDS_P2;PMS_P1;PMS_P2;Temp;Humidity;BMP_temperature;BMP_pressure;BME280_temperature;BME280_humidity;BME280_pressure;Samples;Min_cycle;Max_cycle;Signal;HPM_P1;HPM_P2
2021/05/27 00:00:50;;;;;;;18.95;4.10;;;10.40;99.90;;;;;;5015932;28;20040;-73
2021/05/27 00:03:16;;;;;;;13.43;3.30;;;10.40;99.90;;;;;;5017165;28;20087;-73
2021/05/27 00:05:42;;;;;;;18.48;3.33;;;10.40;99.90;;;;;;5034155;28;20471;-73
2021/05/27 00:08:07;;;;;;;13.65;3.05;;;10.40;99.90;;;;;;5033453;28;20033;-73
2021/05/27 00:10:33;;;;;;;13.07;3.90;;;10.40;99.90;;;;;;5033812;28;20021;-73
2021/05/27 00:12:59;;;;;;;13.57;4.40;;;10.40;99.90;;;;;;5033656;28;20421;-74
2021/05/27 00:15:28;;;;;;;8.98;3.05;;;10.30;99.90;;;;;;5033678;28;20116;-75
2021/05/27 00:17:55;;;;;;;15.93;3.78;;;10.30;99.90;;;;;;5015962;28;20391;-74
2021/05/27 00:20:22;;;;;;;16.50;3.63;;;10.40;99.90;;;;;;5033439;28;20032;-73
2021/05/27 00:22:48;;;;;;;15.73;3.10;;;10.30;99.90;;;;;;5033795;28;20026;-74
2021/05/27 00:25:14;;;;;;;15.35;3.05;;;10.30;99.90;;;;;;5033490;28;20438;-74
2021/05/27 00:27:44;;;;;;;12.30;3.03;;;10.30;99.90;;;;;;5033567;28;20071;-75
2021/05/27 00:30:11;;;;;;;20.98;3.03;;;10.30;99.90;;;;;;5015292;28;20032;-75
2021/05/27 00:32:37;;;;;;;14.60;4.07;;;10.30;99.90;;;;;;5033112;28;20506;-75
2021/05/27 00:35:04;;;;;;;13.40;2.97;;;10.30;99.90;;;;;;5015667;28;20486;-74
2021/05/27 00:37:30;;;;;;;13.93;3.70;;;10.30;99.90;;;;;;5033270;28;20018;-74
2021/05/27 00:39:55;;;;;;;12.00;3.40;;;10.30;99.90;;;;;;5033205;28;20033;-74
2021/05/27 00:42:21;;;;;;;12.35;2.33;;;10.20;99.90;;;;;;5033400;28;20036;-74
2021/05/27 00:45:07;;;;;;;12.75;3.20;;;10.20;99.90;;;;;;5033704;28;20041;-73
2021/05/27 00:47:33;;;;;;;16.95;3.30;;;10.20;99.90;;;;;;5034918;28;20025;-74
2021/05/27 00:49:59;;;;;;;27.15;3.67;;;10.20;99.90;;;;;;5037779;28;20470;-74
2021/05/27 00:52:24;;;;;;;8.35;3.13;;;10.10;99.90;;;;;;5038290;28;20040;-74
2021/05/27 00:54:53;;;;;;;11.57;2.97;;;10.10;99.90;;;;;;5019706;28;20031;-74
2021/05/27 00:57:45;;;;;;;14.18;3.20;;;10.10;99.90;;;;;;5037368;28;20454;-75
2021/05/27 01:00:14;;;;;;;24.45;3.72;;;10.10;99.90;;;;;;5033187;28;20037;-74
2021/05/27 01:02:40;;;;;;;10.27;2.90;;;10.10;99.90;;;;;;5037025;28;20412;-74
2021/05/27 01:05:08;;;;;;;20.80;4.07;;;10.10;99.90;;;;;;5037418;28;20025;-73
2021/05/27 01:07:34;;;;;;;13.77;3.33;;;10.00;99.90;;;;;;5037359;28;20514;-73
2021/05/27 01:10:02;;;;;;;13.00;4.60;;;10.00;99.90;;;;;;5037395;28;20025;-75
2021/05/27 01:12:27;;;;;;;11.90;3.37;;;10.00;99.90;;;;;;5019702;28;20113;-73
2021/05/27 01:17:37;;;;;;;17.17;3.63;;;10.00;99.90;;;;;;5037137;28;20041;-74
2021/05/27 01:20:07;;;;;;;9.85;3.00;;;9.90;99.90;;;;;;5018885;28;20033;-73
2021/05/27 01:22:33;;;;;;;14.85;4.00;;;9.90;99.90;;;;;;5019017;28;20034;-75
2021/05/27 01:24:59;;;;;;;17.48;4.35;;;10.00;99.90;;;;;;5019258;28;20375;-74
2021/05/27 01:27:24;;;;;;;12.50;3.90;;;10.00;99.90;;;;;;5019164;28;20441;-73
2021/05/27 01:29:52;;;;;;;12.75;3.63;;;9.90;99.90;;;;;;5025679;28;20030;-73
2021/05/27 01:32:18;;;;;;;23.17;4.15;;;10.00;99.90;;;;;;4999391;28;20438;-73
2021/05/27 01:34:44;;;;;;;10.57;3.05;;;9.90;99.90;;;;;;5017073;28;20065;-74
2021/05/27 01:37:09;;;;;;;22.75;3.78;;;9.90;99.90;;;;;;5017178;28;20029;-73
2021/05/27 01:39:36;;;;;;;18.83;4.30;;;9.90;99.90;;;;;;4999577;28;20029;-74
2021/05/27 01:42:02;;;;;;;13.80;3.78;;;9.90;99.90;;;;;;4999215;28;20390;-75
2021/05/27 01:44:28;;;;;;;15.13;4.43;;;9.90;99.90;;;;;;4999361;28;20022;-74
2021/05/27 01:46:54;;;;;;;13.43;4.28;;;9.90;99.90;;;;;;5021675;28;20095;-74
2021/05/27 01:49:19;;;;;;;14.43;3.92;;;9.90;99.90;;;;;;5018839;28;20017;-75
2021/05/27 01:51:49;;;;;;;17.92;4.18;;;9.90;99.90;;;;;;5036036;28;20026;-75
2021/05/27 01:54:16;;;;;;;18.63;4.60;;;9.90;99.90;;;;;;5036162;28;20025;-73
2021/05/27 01:56:42;;;;;;;13.88;3.72;;;9.90;99.90;;;;;;5036186;28;20026;-75
2021/05/27 01:59:07;;;;;;;17.33;3.92;;;9.80;99.90;;;;;;5035513;28;20526;-75
2021/05/27 02:01:33;;;;;;;11.00;4.15;;;9.90;99.90;;;;;;5036188;28;20181;-75
2021/05/27 02:03:59;;;;;;;15.27;3.28;;;9.80;99.90;;;;;;5035881;28;20056;-74
2021/05/27 02:06:24;;;;;;;21.77;4.95;;;9.80;99.90;;;;;;5035764;28;20021;-74
2021/05/27 02:11:37;;;;;;;16.58;4.25;;;9.90;99.90;;;;;;5048906;22;20048;-73
2021/05/27 02:14:05;;;;;;;20.73;4.30;;;9.70;99.90;;;;;;5036078;28;20120;-73
2021/05/27 02:16:30;;;;;;;25.35;5.32;;;9.80;99.90;;;;;;5035997;28;20044;-73
2021/05/27 02:18:56;;;;;;;13.65;3.42;;;9.70;99.90;;;;;;5018165;28;20014;-73
2021/05/27 02:21:21;;;;;;;15.05;4.25;;;9.70;99.90;;;;;;5036056;28;20048;-74
2021/05/27 02:23:47;;;;;;;22.45;3.70;;;9.70;99.90;;;;;;5035500;28;20021;-74
2021/05/27 02:26:12;;;;;;;19.27;5.22;;;9.70;99.90;;;;;;5035957;28;20025;-74
2021/05/27 02:28:38;;;;;;;13.02;4.57;;;9.70;99.90;;;;;;5035869;28;20028;-75
2021/05/27 02:31:04;;;;;;;14.35;3.70;;;9.80;99.90;;;;;;5035830;28;20112;-74
2021/05/27 02:33:31;;;;;;;20.85;4.07;;;9.80;99.90;;;;;;5035511;28;20025;-73
2021/05/27 02:36:00;;;;;;;14.30;3.70;;;9.80;99.90;;;;;;5035971;28;20426;-74
2021/05/27 02:38:26;;;;;;;15.90;3.40;;;9.80;99.90;;;;;;5018230;28;20040;-75
2021/05/27 02:40:51;;;;;;;17.80;3.90;;;9.70;99.90;;;;;;5017416;28;20560;-74
2021/05/27 02:43:17;;;;;;;19.75;3.55;;;9.70;99.90;;;;;;5035740;28;20025;-73
2021/05/27 02:45:43;;;;;;;12.85;3.03;;;9.70;99.90;;;;;;5015470;28;20033;-75
2021/05/27 02:48:08;;;;;;;16.23;4.10;;;9.80;99.90;;;;;;5015859;28;20030;-74
2021/05/27 02:50:34;;;;;;;13.40;3.25;;;9.70;99.90;;;;;;5015275;28;20037;-75
2021/05/27 02:52:59;;;;;;;19.73;3.90;;;9.70;99.90;;;;;;5015473;28;20494;-75
2021/05/27 02:55:28;;;;;;;16.38;4.05;;;9.70;99.90;;;;;;5013518;28;20505;-75
2021/05/27 02:57:53;;;;;;;9.35;2.97;;;9.70;99.90;;;;;;5034877;28;20017;-74
2021/05/27 03:00:19;;;;;;;12.88;3.75;;;9.70;99.90;;;;;;5035196;28;20108;-74
2021/05/27 03:02:45;;;;;;;21.23;4.72;;;9.70;99.90;;;;;;5034846;28;20018;-74
2021/05/27 03:05:11;;;;;;;15.63;3.95;;;9.70;99.90;;;;;;5034380;28;20029;-75
2021/05/27 03:07:36;;;;;;;14.25;2.97;;;9.70;99.90;;;;;;5034612;28;20029;-75
2021/05/27 03:10:03;;;;;;;17.48;3.17;;;9.70;99.90;;;;;;5034682;28;20028;-75
2021/05/27 03:12:28;;;;;;;13.48;3.08;;;9.70;99.90;;;;;;5016643;28;20036;-75
2021/05/27 03:14:54;;;;;;;13.15;4.55;;;9.70;99.90;;;;;;5034628;28;20112;-75
2021/05/27 03:17:19;;;;;;;13.98;2.72;;;9.70;99.90;;;;;;5035604;28;20033;-75
2021/05/27 03:19:45;;;;;;;13.13;2.38;;;9.70;99.90;;;;;;5034699;28;20025;-75
2021/05/27 03:22:10;;;;;;;14.82;4.25;;;9.60;99.90;;;;;;5017121;28;20017;-75
2021/05/27 03:24:36;;;;;;;14.85;3.13;;;9.80;99.90;;;;;;5008360;28;20029;-75
2021/05/27 03:27:01;;;;;;;15.50;3.15;;;9.80;99.90;;;;;;5015204;28;20025;-75
2021/05/27 03:29:27;;;;;;;11.35;2.58;;;9.70;99.90;;;;;;5014778;28;20052;-74
2021/05/27 03:31:53;;;;;;;10.45;2.67;;;9.70;99.90;;;;;;5014853;28;20071;-73
2021/05/27 03:34:18;;;;;;;8.60;2.33;;;9.70;99.90;;;;;;5034379;28;20440;-73
2021/05/27 03:36:44;;;;;;;13.38;3.03;;;9.70;99.90;;;;;;5014427;28;20037;-74
2021/05/27 03:39:09;;;;;;;12.52;3.35;;;9.70;99.90;;;;;;4997198;28;20030;-74
2021/05/27 03:41:35;;;;;;;16.20;2.83;;;9.70;99.90;;;;;;5038435;22;20051;-74
2021/05/27 03:44:00;;;;;;;12.15;3.17;;;9.70;99.90;;;;;;5053877;28;20036;-76
2021/05/27 03:46:26;;;;;;;18.25;2.85;;;9.70;99.90;;;;;;5016747;28;20029;-75
2021/05/27 03:48:52;;;;;;;11.43;2.05;;;9.70;99.90;;;;;;5051741;28;20024;-77
2021/05/27 03:51:17;;;;;;;12.25;2.78;;;9.70;99.90;;;;;;5054127;28;20574;-74
2021/05/27 03:53:43;;;;;;;16.55;2.55;;;9.70;99.90;;;;;;5054899;28;20471;-73
2021/05/27 03:56:09;;;;;;;17.20;3.33;;;9.70;99.90;;;;;;5054444;28;20442;-73
2021/05/27 04:09:15;;;;;;;13.15;2.92;;;9.70;99.90;;;;;;5026290;28;20390;-74
2021/05/27 04:11:41;;;;;;;16.35;3.20;;;9.60;99.90;;;;;;5033798;28;20028;-74
2021/05/27 04:14:06;;;;;;;14.90;2.78;;;9.70;99.90;;;;;;5033837;28;20038;-73
2021/05/27 04:16:33;;;;;;;12.93;2.25;;;9.60;99.90;;;;;;5016120;28;20018;-73
2021/05/27 04:19:00;;;;;;;13.57;2.83;;;9.60;99.90;;;;;;5025853;28;20021;-73
2021/05/27 04:21:25;;;;;;;14.52;4.65;;;9.60;99.90;;;;;;5013774;28;20057;-73
2021/05/27 04:23:51;;;;;;;16.42;3.55;;;9.70;99.90;;;;;;5012207;28;20033;-74
2021/05/27 04:26:17;;;;;;;12.50;2.00;;;9.70;99.90;;;;;;5014016;28;20026;-73
2021/05/27 04:28:44;;;;;;;12.55;3.47;;;9.70;99.90;;;;;;5000236;28;20029;-73
2021/05/27 04:31:14;;;;;;;17.65;2.50;;;9.70;99.90;;;;;;5046641;22;20068;-73
2021/05/27 04:33:49;;;;;;;12.27;2.80;;;9.70;99.90;;;;;;5033432;28;20046;-74
2021/05/27 04:36:17;;;;;;;10.57;2.65;;;9.70;99.90;;;;;;5052232;28;20021;-75
2021/05/27 04:38:43;;;;;;;12.25;3.30;;;9.70;99.90;;;;;;5052206;28;20094;-74
2021/05/27 04:41:09;;;;;;;26.95;3.78;;;9.70;99.90;;;;;;5041588;28;20096;-75
2021/05/27 04:43:35;;;;;;;38.45;4.25;;;9.70;99.90;;;;;;5034058;28;20486;-74
2021/05/27 04:46:01;;;;;;;11.23;2.45;;;9.70;99.90;;;;;;5053355;28;20112;-75
2021/05/27 04:48:27;;;;;;;12.90;2.90;;;9.80;99.90;;;;;;5030952;28;20405;-74
2021/05/27 04:50:53;;;;;;;14.95;2.72;;;9.80;99.90;;;;;;5015548;28;20028;-73
2021/05/27 04:53:23;;;;;;;13.85;3.83;;;9.80;99.90;;;;;;5050436;28;20457;-74
2021/05/27 04:55:49;;;;;;;18.95;2.90;;;9.80;99.90;;;;;;5053386;28;20029;-75
2021/05/27 04:58:15;;;;;;;16.33;4.05;;;9.80;99.90;;;;;;5035119;28;20029;-73
2021/05/27 05:00:41;;;;;;;17.58;3.20;;;9.80;99.90;;;;;;5053581;28;20025;-74
2021/05/27 05:03:07;;;;;;;15.68;2.65;;;9.80;99.90;;;;;;5035304;28;20025;-73
2021/05/27 05:05:35;;;;;;;19.58;3.20;;;9.80;99.90;;;;;;5053132;28;20029;-74
2021/05/27 05:08:02;;;;;;;14.65;2.03;;;9.80;99.90;;;;;;5052460;28;20044;-74
2021/05/27 05:10:28;;;;;;;15.73;3.03;;;9.80;99.90;;;;;;5018492;28;20044;-75
2021/05/27 05:12:55;;;;;;;15.40;3.08;;;9.80;99.90;;;;;;5053151;28;20103;-75
2021/05/27 05:15:31;;;;;;;16.23;3.28;;;9.80;99.90;;;;;;5060190;22;20060;-75
2021/05/27 05:18:02;;;;;;;13.32;3.15;;;9.70;99.90;;;;;;5053383;28;20113;-76
2021/05/27 05:20:33;;;;;;;14.02;2.78;;;9.70;99.90;;;;;;5033334;28;20394;-74
2021/05/27 05:23:00;;;;;;;21.92;3.33;;;9.70;99.90;;;;;;5015329;28;20040;-75
2021/05/27 05:25:27;;;;;;;20.98;2.70;;;9.80;99.90;;;;;;5033149;28;20021;-73
2021/05/27 05:27:54;;;;;;;12.02;2.97;;;9.80;99.90;;;;;;5033123;28;20025;-74
2021/05/27 05:30:21;;;;;;;11.02;2.70;;;9.80;99.90;;;;;;5052252;28;20382;-74
2021/05/27 05:32:48;;;;;;;17.67;3.10;;;9.80;99.90;;;;;;5052984;28;20029;-74
2021/05/27 05:35:16;;;;;;;12.18;2.75;;;9.80;99.90;;;;;;5055160;28;20029;-75
2021/05/27 05:37:42;;;;;;;9.75;2.40;;;9.90;99.90;;;;;;5057205;28;20021;-75
2021/05/27 05:40:11;;;;;;;10.57;2.95;;;9.90;99.90;;;;;;5057470;28;20083;-77
2021/05/27 05:42:38;;;;;;;12.75;2.67;;;9.90;99.90;;;;;;5059441;28;20033;-75
2021/05/27 05:45:05;;;;;;;12.75;2.40;;;9.90;99.90;;;;;;5056592;28;20482;-75
2021/05/27 05:47:30;;;;;;;15.48;2.30;;;9.90;99.90;;;;;;5038840;28;20540;-76
2021/05/27 05:49:56;;;;;;;14.73;3.90;;;9.90;99.90;;;;;;5056393;28;20145;-77
2021/05/27 05:52:21;;;;;;;18.85;2.58;;;9.90;99.90;;;;;;5039435;28;20113;-77
2021/05/27 05:54:47;;;;;;;12.65;2.55;;;10.00;99.90;;;;;;5038998;28;20025;-77
2021/05/27 05:57:13;;;;;;;10.30;2.60;;;10.00;99.90;;;;;;5057670;28;20467;-77
2021/05/27 05:59:38;;;;;;;12.43;2.42;;;10.00;99.90;;;;;;5057523;28;20048;-74
2021/05/27 06:02:04;;;;;;;12.15;1.85;;;10.00;99.90;;;;;;5056416;28;20025;-75
2021/05/27 06:04:31;;;;;;;16.25;3.47;;;9.90;99.90;;;;;;5056159;28;20021;-76
2021/05/27 06:06:57;;;;;;;13.88;2.75;;;10.00;99.90;;;;;;5038305;28;20516;-73
2021/05/27 06:09:24;;;;;;;14.55;2.25;;;9.90;99.90;;;;;;5056005;28;20021;-72
2021/05/27 06:11:50;;;;;;;11.23;2.33;;;9.90;99.90;;;;;;5055929;28;20078;-73
2021/05/27 06:14:16;;;;;;;13.70;2.58;;;9.90;99.90;;;;;;5037995;28;20029;-78
2021/05/27 06:16:44;;;;;;;12.10;2.90;;;9.90;99.90;;;;;;5039135;28;20032;-77
2021/05/27 06:19:09;;;;;;;16.77;3.13;;;9.90;99.90;;;;;;5056680;28;20041;-77
2021/05/27 06:21:35;;;;;;;9.88;2.13;;;9.90;99.90;;;;;;5056393;28;20044;-77
2021/05/27 06:24:00;;;;;;;10.57;2.83;;;9.90;99.90;;;;;;5056308;28;20108;-77
2021/05/27 06:26:26;;;;;;;14.95;2.60;;;10.00;99.90;;;;;;5056795;28;20033;-77
2021/05/27 06:28:52;;;;;;;14.90;2.10;;;10.00;99.90;;;;;;5037962;28;20025;-77
2021/05/27 06:31:18;;;;;;;15.57;3.45;;;10.00;99.90;;;;;;5056035;28;20021;-77
2021/05/27 06:33:44;;;;;;;14.10;1.95;;;10.00;99.90;;;;;;5038011;28;20505;-73
2021/05/27 06:36:10;;;;;;;17.75;2.55;;;9.90;99.90;;;;;;5037859;28;20017;-73
2021/05/27 06:38:36;;;;;;;12.00;2.10;;;10.00;99.90;;;;;;5037528;28;20032;-74
2021/05/27 06:41:02;;;;;;;18.08;2.63;;;10.00;99.90;;;;;;5037629;28;20025;-74
2021/05/27 06:43:30;;;;;;;10.70;2.13;;;10.00;99.90;;;;;;5037683;28;20060;-73
2021/05/27 06:45:57;;;;;;;10.93;2.88;;;10.00;99.90;;;;;;5055050;28;20037;-76
2021/05/27 06:48:23;;;;;;;15.57;2.75;;;10.10;99.90;;;;;;5055245;28;20059;-76
2021/05/27 06:50:50;;;;;;;10.43;2.47;;;10.10;99.90;;;;;;5055254;28;20044;-76
2021/05/27 06:53:15;;;;;;;12.57;3.30;;;10.10;99.90;;;;;;5037639;28;20470;-78
2021/05/27 06:55:42;;;;;;;13.23;2.47;;;10.20;99.90;;;;;;5055475;28;20025;-76
2021/05/27 06:58:09;;;;;;;15.43;2.63;;;10.20;99.90;;;;;;5055126;28;20021;-77
2021/05/27 07:00:35;;;;;;;11.25;2.15;;;10.20;99.90;;;;;;5037299;28;20075;-77
2021/05/27 07:03:03;;;;;;;19.45;3.05;;;10.30;99.90;;;;;;5055093;28;20021;-77
2021/05/27 07:05:29;;;;;;;10.27;2.03;;;10.30;99.90;;;;;;5037138;28;20021;-76
2021/05/27 07:07:56;;;;;;;19.35;3.55;;;10.30;99.90;;;;;;5055090;28;20116;-76
2021/05/27 07:10:22;;;;;;;8.45;1.58;;;10.30;99.90;;;;;;5036691;28;20078;-76
2021/05/27 07:12:54;;;;;;;13.32;2.30;;;10.30;99.90;;;;;;5036968;28;20123;-76
2021/05/27 07:15:22;;;;;;;14.60;2.10;;;10.30;99.90;;;;;;5054643;28;20494;-76
2021/05/27 07:17:49;;;;;;;13.18;2.05;;;10.30;99.90;;;;;;5054931;28;20021;-76
2021/05/27 07:20:15;;;;;;;14.55;2.88;;;10.30;99.90;;;;;;5055698;28;20043;-76
2021/05/27 07:22:41;;;;;;;11.60;2.13;;;10.40;99.90;;;;;;5037653;28;20040;-75
2021/05/27 07:25:08;;;;;;;12.57;2.80;;;10.30;99.90;;;;;;5037387;28;20029;-78
2021/05/27 07:27:34;;;;;;;13.65;2.72;;;10.40;99.90;;;;;;5055066;28;20021;-78
2021/05/27 07:30:00;;;;;;;18.52;3.38;;;10.40;99.90;;;;;;5037258;28;20028;-75
2021/05/27 07:32:26;;;;;;;12.90;3.03;;;10.50;99.90;;;;;;5054390;28;20112;-73
2021/05/27 07:34:52;;;;;;;14.48;2.28;;;10.60;99.90;;;;;;5054421;28;20101;-73
2021/05/27 07:37:18;;;;;;;15.60;2.95;;;10.70;99.90;;;;;;5036549;28;20031;-73
2021/05/27 07:39:43;;;;;;;12.80;2.25;;;10.80;99.90;;;;;;5054883;28;20021;-73
2021/05/27 07:42:09;;;;;;;11.63;2.00;;;10.90;99.90;;;;;;5054339;28;20017;-73
2021/05/27 07:44:35;;;;;;;15.23;3.47;;;11.00;99.90;;;;;;5054208;28;20074;-72
2021/05/27 07:47:02;;;;;;;13.82;2.35;;;11.00;99.90;;;;;;5054635;28;20025;-74
2021/05/27 07:49:28;;;;;;;10.82;2.50;;;11.10;99.90;;;;;;5036129;28;20032;-72
2021/05/27 07:51:55;;;;;;;12.00;2.20;;;11.10;99.90;;;;;;5053958;28;20048;-72
2021/05/27 07:54:21;;;;;;;11.38;3.00;;;11.10;99.90;;;;;;5053923;28;20033;-73
2021/05/27 07:56:46;;;;;;;7.30;1.90;;;11.10;99.90;;;;;;5053194;28;20028;-73
2021/05/27 07:59:13;;;;;;;17.08;2.60;;;11.20;99.90;;;;;;5054131;28;20049;-73
2021/05/27 08:01:40;;;;;;;13.75;3.03;;;11.20;99.90;;;;;;5053787;28;20020;-73
2021/05/27 08:04:05;;;;;;;13.35;2.70;;;11.10;99.90;;;;;;5054151;28;20031;-77
2021/05/27 08:06:31;;;;;;;12.40;2.55;;;11.10;99.90;;;;;;5054226;28;20111;-76
2021/05/27 08:08:56;;;;;;;13.20;2.05;;;11.00;99.90;;;;;;5054738;28;20082;-77
2021/05/27 08:11:22;;;;;;;13.02;2.25;;;10.90;99.90;;;;;;5054420;28;20473;-77
2021/05/27 08:13:47;;;;;;;9.88;2.55;;;10.90;99.90;;;;;;5036512;28;20399;-77
2021/05/27 08:16:14;;;;;;;9.00;1.75;;;10.90;99.90;;;;;;5036484;28;20470;-77
2021/05/27 08:18:39;;;;;;;22.20;2.70;;;10.90;99.90;;;;;;5054583;28;20445;-77
2021/05/27 08:21:08;;;;;;;6.32;1.65;;;10.90;99.90;;;;;;5036282;28;20048;-77
2021/05/27 08:23:34;;;;;;;;;;;10.80;99.90;;;;;;5037032;28;20051;-77
2021/05/27 08:26:00;;;;;;;13.60;1.50;;;10.80;99.90;;;;;;5053892;28;19905;-77
2021/05/27 08:28:26;;;;;;;8.82;1.92;;;10.90;99.90;;;;;;5053767;28;20044;-77
2021/05/27 08:30:52;;;;;;;13.60;1.73;;;10.90;99.90;;;;;;5036073;28;20537;-77
2021/05/27 08:33:17;;;;;;;14.07;1.45;;;10.90;99.90;;;;;;5053473;28;20041;-75
2021/05/27 08:35:43;;;;;;;11.02;2.30;;;11.00;99.90;;;;;;5053557;28;20013;-73
2021/05/27 08:38:08;;;;;;;7.22;1.35;;;11.10;99.90;;;;;;5035419;28;20024;-72
2021/05/27 08:40:34;;;;;;;9.38;1.40;;;11.10;99.90;;;;;;5035423;28;20036;-72
2021/05/27 08:43:03;;;;;;;12.70;2.25;;;11.10;99.90;;;;;;5035447;28;20025;-73
2021/05/27 08:45:32;;;;;;;9.32;1.52;;;11.20;99.90;;;;;;5053198;28;20036;-72
2021/05/27 08:47:58;;;;;;;9.20;1.73;;;11.20;99.90;;;;;;5053300;28;20017;-77
2021/05/27 08:50:30;;;;;;;13.30;2.15;;;11.30;99.90;;;;;;5035957;28;20028;-77
2021/05/27 08:52:59;;;;;;;9.13;2.35;;;11.40;99.90;;;;;;5053725;28;20047;-77
2021/05/27 08:55:25;;;;;;;9.95;1.90;;;11.50;99.90;;;;;;5053261;28;20028;-76
2021/05/27 08:57:53;;;;;;;7.80;1.52;;;11.60;99.90;;;;;;5048462;23;20041;-78
2021/05/27 09:00:20;;;;;;;19.60;2.42;;;11.60;99.90;;;;;;5036684;28;20032;-73
2021/05/27 09:03:00;;;;;;;7.88;1.88;;;11.60;99.90;;;;;;5035106;28;20017;-76
2021/05/27 09:05:27;;;;;;;12.73;1.75;;;11.50;99.90;;;;;;5041697;28;20053;-78
2021/05/27 09:07:53;;;;;;;8.05;2.30;;;11.50;99.90;;;;;;5034992;28;20429;-78
2021/05/27 09:10:18;;;;;;;16.20;2.40;;;11.40;99.90;;;;;;5020614;28;20021;-78
2021/05/27 09:12:44;;;;;;;11.18;2.05;;;11.30;99.90;;;;;;5038591;28;20041;-77
2021/05/27 09:15:21;;;;;;;8.05;1.70;;;11.20;99.90;;;;;;5020629;28;20391;-77
2021/05/27 09:17:49;;;;;;;21.27;2.58;;;11.20;99.90;;;;;;5020535;28;20474;-77
2021/05/27 09:20:25;;;;;;;15.40;2.43;;;11.10;99.90;;;;;;5038444;28;20501;-78
2021/05/27 09:23:07;;;;;;;9.95;2.78;;;11.10;99.90;;;;;;5020578;28;20363;-78
2021/05/27 09:25:35;;;;;;;13.15;3.08;;;11.20;99.90;;;;;;5019072;28;20029;-76
2021/05/27 09:28:01;;;;;;;12.48;2.22;;;11.30;99.90;;;;;;5018978;28;20113;-76
2021/05/27 09:30:27;;;;;;;13.88;1.90;;;11.40;99.90;;;;;;5036707;28;20041;-77
2021/05/27 09:32:53;;;;;;;7.85;1.70;;;11.40;99.90;;;;;;5020096;28;20017;-77
2021/05/27 09:35:20;;;;;;;12.90;3.70;;;11.50;99.90;;;;;;5020015;28;20108;-78
2021/05/27 09:37:48;;;;;;;12.30;3.03;;;11.60;99.90;;;;;;5019968;28;20033;-77
2021/05/27 09:40:29;;;;;;;17.40;2.85;;;11.60;99.90;;;;;;5019967;28;20022;-77
2021/05/27 09:42:54;;;;;;;6.57;1.65;;;11.70;99.90;;;;;;5037499;28;20467;-76
2021/05/27 09:45:21;;;;;;;8.88;1.73;;;11.60;99.90;;;;;;5019742;28;20079;-77
2021/05/27 09:47:46;;;;;;;8.27;1.33;;;11.60;99.90;;;;;;5037065;28;20390;-77
2021/05/27 09:50:12;;;;;;;11.82;1.85;;;11.60;99.90;;;;;;5037214;28;20017;-76
2021/05/27 09:52:48;;;;;;;13.85;1.45;;;11.60;99.90;;;;;;5036674;28;20132;-77
2021/05/27 09:55:19;;;;;;;15.20;3.22;;;11.60;99.90;;;;;;5019935;28;20030;-77
2021/05/27 09:57:47;;;;;;;10.57;2.38;;;11.60;99.90;;;;;;5019722;28;20033;-77
2021/05/27 10:00:21;;;;;;;18.40;2.95;;;11.60;99.90;;;;;;5020114;28;20105;-73
2021/05/27 10:02:47;;;;;;;10.48;1.92;;;11.60;99.90;;;;;;5018315;28;20033;-73
2021/05/27 10:05:14;;;;;;;15.60;3.40;;;11.50;99.90;;;;;;5018381;28;20048;-73
2021/05/27 10:07:44;;;;;;;13.13;1.55;;;11.50;99.90;;;;;;5036089;28;20034;-73
2021/05/27 10:10:12;;;;;;;9.55;2.10;;;11.40;99.90;;;;;;5036499;28;20504;-75
2021/05/27 10:12:40;;;;;;;9.60;1.80;;;11.40;99.90;;;;;;5018367;28;20026;-74
2021/05/27 10:15:08;;;;;;;11.38;2.42;;;11.40;99.90;;;;;;5036714;28;20071;-74
2021/05/27 10:17:37;;;;;;;10.40;1.77;;;11.50;99.90;;;;;;5018318;28;20071;-74
2021/05/27 10:20:13;;;;;;;13.63;3.17;;;11.50;99.90;;;;;;5035459;28;20044;-73
2021/05/27 10:22:38;;;;;;;14.50;2.40;;;11.50;99.90;;;;;;5018165;28;20021;-76
2021/05/27 10:25:10;;;;;;;9.85;2.83;;;11.50;99.90;;;;;;5064386;22;20071;-75
2021/05/27 10:27:36;;;;;;;18.35;2.08;;;11.60;99.90;;;;;;5037705;28;20077;-76
2021/05/27 10:30:04;;;;;;;10.68;1.80;;;11.60;99.90;;;;;;5037858;28;20473;-73
2021/05/27 10:32:30;;;;;;;8.60;2.25;;;11.60;99.90;;;;;;5037643;28;20031;-73
2021/05/27 10:34:56;;;;;;;12.45;2.47;;;11.70;99.90;;;;;;5055620;28;20100;-76
2021/05/27 10:37:45;;;;;;;12.23;2.22;;;11.70;99.90;;;;;;5069065;22;20052;-75
2021/05/27 10:40:22;;;;;;;10.05;1.27;;;11.70;99.90;;;;;;5055741;28;20075;-76
2021/05/27 10:43:05;;;;;;;12.65;3.20;;;11.80;99.90;;;;;;5055396;28;20108;-73
2021/05/27 10:45:32;;;;;;;19.50;2.80;;;11.70;99.90;;;;;;5055533;28;20029;-76
2021/05/27 10:48:16;;;;;;;12.00;2.17;;;11.60;99.90;;;;;;5055290;28;20021;-74
2021/05/27 10:53:39;;;;;;;7.80;1.17;;;11.60;99.90;;;;;;5055999;28;20037;-76
2021/05/27 10:56:05;;;;;;;10.23;1.70;;;11.60;99.90;;;;;;5037460;28;20446;-76
2021/05/27 10:58:49;;;;;;;12.73;2.92;;;12.30;99.90;;;;;;5055209;28;20032;-73
2021/05/27 11:01:34;;;;;;;8.13;1.98;;;11.50;99.90;;;;;;5055254;28;20040;-74
2021/05/27 11:04:25;;;;;;;9.05;2.60;;;11.70;99.90;;;;;;5036804;28;20032;-73
2021/05/27 11:07:10;;;;;;;10.25;1.58;;;11.90;99.90;;;;;;5054947;28;20029;-76
2021/05/27 11:09:38;;;;;;;7.38;1.63;;;12.20;99.90;;;;;;5036744;28;20120;-76
2021/05/27 11:12:16;;;;;;;9.25;1.55;;;12.50;99.90;;;;;;5036965;28;20036;-72
2021/05/27 11:15:01;;;;;;;6.93;1.10;;;12.90;99.90;;;;;;5054896;28;20014;-73
2021/05/27 11:17:27;;;;;;;10.63;1.55;;;13.10;99.90;;;;;;5054893;28;20517;-72
2021/05/27 11:20:07;;;;;;;4.50;1.30;;;13.40;99.90;;;;;;5054633;28;20017;-74
2021/05/27 11:27:45;;;;;;;5.57;1.52;;;14.20;99.90;;;;;;5055653;28;20036;-73
2021/05/27 11:30:13;;;;;;;2.92;0.75;;;14.30;99.90;;;;;;5036667;28;20021;-73
2021/05/27 11:32:39;;;;;;;8.68;0.90;;;14.30;99.90;;;;;;5053438;28;20025;-73
2021/05/27 11:35:05;;;;;;;4.47;0.90;;;14.20;99.90;;;;;;5054630;28;20099;-73
2021/05/27 11:37:39;;;;;;;9.60;0.82;;;14.00;99.90;;;;;;5054257;28;20428;-75
2021/05/27 11:40:07;;;;;;;3.17;0.35;;;13.80;99.90;;;;;;5036532;28;20029;-73
2021/05/27 11:42:34;;;;;;;7.82;0.70;;;13.60;99.90;;;;;;5054575;28;20025;-75
2021/05/27 11:45:02;;;;;;;6.60;1.25;;;13.40;99.90;;;;;;5054214;28;20474;-74
2021/05/27 11:47:28;;;;;;;10.35;1.48;;;13.20;99.90;;;;;;5036324;28;20021;-76
2021/05/27 11:50:09;;;;;;;8.48;1.20;;;13.10;99.90;;;;;;5049401;22;20037;-74
2021/05/27 11:52:35;;;;;;;5.45;1.42;;;12.90;99.90;;;;;;5054302;28;20028;-77
2021/05/27 11:55:01;;;;;;;8.50;1.50;;;12.80;99.90;;;;;;5054467;28;20572;-73
2021/05/27 11:57:44;;;;;;;8.05;1.77;;;12.90;99.90;;;;;;5054020;28;20470;-73
2021/05/27 12:00:13;;;;;;;8.18;1.13;;;12.70;99.90;;;;;;5035865;28;20060;-76
2021/05/27 12:02:49;;;;;;;9.48;0.75;;;12.80;99.90;;;;;;5053684;28;20052;-74
2021/05/27 12:05:21;;;;;;;8.10;1.20;;;13.10;99.90;;;;;;5054334;28;20096;-73
2021/05/27 12:08:16;;;;;;;11.27;1.70;;;13.30;99.90;;;;;;5053622;28;20029;-73
2021/05/27 12:10:50;;;;;;;5.88;0.30;;;13.70;99.90;;;;;;5015485;28;20032;-76
2021/05/27 12:13:18;;;;;;;12.10;2.83;;;14.40;99.90;;;;;;5053887;28;20486;-77
2021/05/27 12:15:45;;;;;;;8.60;1.08;;;16.80;99.90;;;;;;5053916;28;20045;-75
2021/05/27 12:18:13;;;;;;;9.77;0.65;;;15.20;99.90;;;;;;5054402;28;20371;-76
2021/05/27 12:20:39;;;;;;;5.72;1.15;;;15.40;99.90;;;;;;5054397;28;20025;-74
2021/05/27 12:23:07;;;;;;;7.57;0.50;;;15.20;99.90;;;;;;5053493;28;20385;-73
2021/05/27 12:25:41;;;;;;;10.95;1.00;;;15.00;99.90;;;;;;5053459;28;20098;-76
2021/05/27 12:28:19;;;;;;;5.22;0.50;;;14.70;99.90;;;;;;5035860;28;20086;-75
2021/05/27 12:30:55;;;;;;;5.88;0.50;;;14.40;99.90;;;;;;5066602;23;20263;-74
2021/05/27 12:33:25;;;;;;;2.88;0.03;;;14.20;99.90;;;;;;5035270;28;20056;-76
2021/05/27 12:35:52;;;;;;;4.53;0.80;;;13.90;99.90;;;;;;5053082;28;20026;-75
2021/05/27 12:38:25;;;;;;;4.07;0.65;;;13.60;99.90;;;;;;5053123;28;20037;-75
2021/05/27 12:40:55;;;;;;;11.38;1.00;;;13.50;99.90;;;;;;5035376;28;20031;-74
2021/05/27 12:43:32;;;;;;;7.65;0.70;;;13.30;99.90;;;;;;5053188;28;20021;-77
2021/05/27 12:45:58;;;;;;;6.75;0.30;;;13.30;99.90;;;;;;5079697;22;20041;-77
2021/05/27 12:48:31;;;;;;;4.32;0.35;;;13.30;99.90;;;;;;5035092;28;20036;-76
2021/05/27 12:51:04;;;;;;;9.13;0.38;;;13.40;99.90;;;;;;5053297;28;20453;-76
2021/05/27 12:53:41;;;;;;;5.88;0.65;;;13.60;99.90;;;;;;5053509;28;20067;-73
2021/05/27 12:56:11;;;;;;;8.15;0.95;;;13.80;99.90;;;;;;5035134;28;20532;-72
2021/05/27 12:58:38;;;;;;;6.05;0.45;;;14.10;99.90;;;;;;5053389;28;20377;-73
2021/05/27 13:01:05;;;;;;;3.83;0.32;;;14.40;99.90;;;;;;5053000;28;20040;-73
2021/05/27 13:03:51;;;;;;;2.25;0.10;;;14.60;99.90;;;;;;5052951;28;20029;-76
2021/05/27 13:06:22;;;;;;;4.55;0.20;;;14.70;99.90;;;;;;5053081;28;20021;-73
2021/05/27 13:08:55;;;;;;;5.95;0.10;;;14.80;99.90;;;;;;5035142;28;20021;-76
2021/05/27 13:11:27;;;;;;;5.25;0.28;;;14.70;99.90;;;;;;5053447;28;20021;-73